πŸ“Š DonnΓ©es MΓ©tΓ©o - Bordeaux

Total mesures

14,353

TempΓ©rature moyenne

18.8Β°C

Temp. Min/Max

2.9Β° / 42.4Β°

HumiditΓ© moyenne

64.9%

Pression moyenne

1014.7 hPa
enregistrements
ID Date/Heure Temp (Β°C) HumiditΓ© (%) Pression (hPa) Tendance LuminositΓ© (lux) Situation
13153 18/08/2026 20:15 22.4 71.0 1,014.0 β†’ Stable 0 pluvieux-gris (approx.)
13152 18/08/2026 19:45 23.3 66.0 1,013.5 β†’ Stable 0 conditions-neutrales-ou-non-definies
13151 18/08/2026 19:30 24.0 61.0 1,013.5 β†’ Stable 0 confortablement-chaud (approx.)
13150 18/08/2026 19:15 24.7 58.0 1,013.5 β†’ Stable 0 confortablement-chaud (approx.)
13149 18/08/2026 18:45 26.1 53.0 1,013.6 β†’ Stable 3,336 confortablement-chaud (approx.)
13148 18/08/2026 18:30 26.5 54.0 1,013.6 β†’ Stable 8,148 confortablement-chaud (approx.)
13147 18/08/2026 18:15 27.1 52.0 1,013.6 β†’ Stable 13,428 confortablement-chaud (approx.)
13146 18/08/2026 18:00 27.7 51.0 1,013.6 β†’ Stable 17,412 confortablement-chaud (approx.)
13145 18/08/2026 17:45 28.3 49.0 1,013.4 β†’ Stable 22,500 confortablement-chaud (approx.)
13144 18/08/2026 17:15 29.4 46.0 1,013.4 β†’ Stable 32,592 conditions-neutrales-ou-non-definies
13143 18/08/2026 16:45 30.3 44.0 1,013.3 β†’ Stable 44,076 conditions-neutrales-ou-non-definies
13142 18/08/2026 16:15 31.0 43.0 1,013.3 β†’ Stable 53,796 conditions-neutrales-ou-non-definies
13141 18/08/2026 15:45 32.4 36.0 1,013.5 β†’ Stable 64,632 chaleur-seche
13140 18/08/2026 15:30 32.5 35.0 1,013.5 β†’ Stable 66,948 chaleur-seche
13139 18/08/2026 15:15 32.5 35.0 1,013.5 β†’ Stable 70,920 chaleur-seche
13138 18/08/2026 14:45 32.3 36.0 1,014.2 β†’ Stable 81,672 chaleur-seche
13137 18/08/2026 14:15 32.0 37.0 1,014.2 β†’ Stable 88,152 chaleur-seche
13136 18/08/2026 13:45 31.7 38.0 1,014.9 β†’ Stable 94,356 chaleur-seche
13135 18/08/2026 13:30 31.5 39.0 1,014.9 β†’ Stable 90,828 chaleur-seche
13134 18/08/2026 13:15 31.3 40.0 1,014.9 β†’ Stable 92,496 confortablement-chaud (approx.)
13133 18/08/2026 12:45 30.8 42.0 1,015.5 β†’ Stable 97,032 confortablement-chaud (approx.)
13132 18/08/2026 12:15 30.3 44.0 1,015.5 β†’ Stable 97,872 confortablement-chaud (approx.)
13131 18/08/2026 12:00 30.1 45.0 1,015.5 β†’ Stable 96,300 confortablement-chaud (approx.)
13130 18/08/2026 11:45 29.7 46.0 1,016.2 β†’ Stable 95,832 confortablement-chaud (approx.)
13129 18/08/2026 11:30 29.2 49.0 1,016.2 β†’ Stable 95,004 confortablement-chaud (approx.)
13128 18/08/2026 11:15 28.9 50.0 1,016.2 β†’ Stable 92,412 confortablement-chaud
13127 18/08/2026 10:45 28.4 49.0 1,016.8 β†’ Stable 83,520 confortablement-chaud
13126 18/08/2026 10:15 27.7 54.0 1,017.0 β†’ Stable 75,096 confortablement-chaud
13125 18/08/2026 09:45 26.9 58.0 1,016.8 β†’ Stable 76,944 confortablement-chaud
13124 18/08/2026 09:30 26.4 60.0 1,016.8 β†’ Stable 74,628 confortablement-chaud
13123 18/08/2026 09:15 25.9 63.0 1,016.8 β†’ Stable 71,580 confortablement-chaud
13122 18/08/2026 08:45 24.7 67.0 1,016.8 β†’ Stable 63,516 confortablement-chaud (approx.)
13121 18/08/2026 08:15 23.6 72.0 1,016.8 β†’ Stable 36,108 pluvieux-gris (approx.)
13120 18/08/2026 08:00 23.2 75.0 1,016.8 β†’ Stable 24,912 pluvieux-gris (approx.)
13119 18/08/2026 07:45 22.8 77.0 1,016.9 β†’ Stable 20,088 pluvieux-gris (approx.)
13118 18/08/2026 07:15 21.0 83.0 1,016.9 β†’ Stable 13,236 pluvieux-gris (approx.)
13117 18/08/2026 06:45 20.4 87.0 1,017.0 β†’ Stable 9,912 pluvieux-gris (approx.)
13116 18/08/2026 06:15 20.0 87.0 1,017.0 β†’ Stable 5,652 pluvieux-gris (approx.)
13115 18/08/2026 05:45 19.4 89.0 1,016.8 β†’ Stable 1,764 pluvieux-gris (approx.)
13114 18/08/2026 05:30 19.2 90.0 1,016.8 β†’ Stable 276 pluvieux-gris (approx.)
13113 18/08/2026 05:15 19.1 90.0 1,016.8 β†’ Stable 0 pluvieux-gris (approx.)
13112 18/08/2026 05:00 19.2 89.0 1,016.8 β†’ Stable 0 pluvieux-gris (approx.)
13111 18/08/2026 04:45 19.3 89.0 1,016.6 β†’ Stable 0 pluvieux-gris (approx.)
13110 18/08/2026 04:30 19.3 88.0 1,016.6 β†’ Stable 0 pluvieux-gris (approx.)
13109 18/08/2026 04:15 19.4 88.0 1,016.6 β†’ Stable 0 pluvieux-gris (approx.)
13108 18/08/2026 04:00 19.5 87.0 1,016.6 β†’ Stable 0 pluvieux-gris (approx.)
13107 18/08/2026 03:45 19.6 87.0 1,016.8 β†’ Stable 0 pluvieux-gris (approx.)
13106 18/08/2026 03:15 19.7 85.0 1,016.8 β†’ Stable 0 pluvieux-gris (approx.)
13105 18/08/2026 02:45 19.9 85.0 1,017.1 β†’ Stable 0 pluvieux-gris (approx.)
13104 18/08/2026 02:30 20.0 89.0 1,017.1 β†’ Stable 0 pluvieux-gris (approx.)
13103 18/08/2026 02:15 20.0 89.0 1,017.1 β†’ Stable 0 pluvieux-gris (approx.)
13102 18/08/2026 01:45 20.2 87.0 1,017.4 β†’ Stable 0 pluvieux-gris (approx.)
13101 18/08/2026 01:30 20.2 82.0 1,017.4 β†’ Stable 0 pluvieux-gris (approx.)
13100 18/08/2026 01:15 20.3 82.0 1,017.4 β†’ Stable 0 pluvieux-gris (approx.)
13099 18/08/2026 00:45 20.5 80.0 1,017.7 β†’ Stable 0 pluvieux-gris (approx.)
13098 18/08/2026 00:30 20.6 79.0 1,017.7 β†’ Stable 0 pluvieux-gris (approx.)
13097 18/08/2026 00:15 20.8 78.0 1,017.7 β†’ Stable 0 pluvieux-gris (approx.)
13096 17/08/2026 23:45 21.1 79.0 1,017.4 β†’ Stable 0 pluvieux-gris (approx.)
13095 17/08/2026 23:30 21.3 81.0 1,017.4 β†’ Stable 0 pluvieux-gris (approx.)
13094 17/08/2026 23:15 21.5 82.0 1,017.4 β†’ Stable 0 pluvieux-gris (approx.)
13093 17/08/2026 22:45 21.8 86.0 1,017.0 β†’ Stable 0 pluvieux-gris (approx.)
13092 17/08/2026 22:15 22.1 86.0 1,017.0 β†’ Stable 0 pluvieux-gris (approx.)
13091 17/08/2026 21:45 22.7 80.0 1,016.8 β†’ Stable 0 pluvieux-gris (approx.)
13090 17/08/2026 21:30 22.9 78.0 1,016.8 β†’ Stable 0 pluvieux-gris (approx.)
13089 17/08/2026 21:15 23.0 77.0 1,016.8 β†’ Stable 0 pluvieux-gris (approx.)
13088 17/08/2026 20:45 23.3 74.0 1,016.6 β†’ Stable 0 pluvieux-gris (approx.)
13087 17/08/2026 20:15 23.9 70.0 1,016.6 β†’ Stable 0 pluvieux-gris (approx.)
13086 17/08/2026 19:45 24.4 68.0 1,016.3 β†’ Stable 0 confortablement-chaud (approx.)
13085 17/08/2026 19:30 24.6 67.0 1,016.3 β†’ Stable 0 confortablement-chaud (approx.)
13084 17/08/2026 19:15 24.8 66.0 1,016.3 β†’ Stable 0 confortablement-chaud (approx.)
13083 17/08/2026 18:45 25.1 65.0 1,016.3 β†’ Stable 2,496 confortablement-chaud (approx.)
13082 17/08/2026 18:30 25.2 65.0 1,016.3 β†’ Stable 7,404 confortablement-chaud (approx.)
13081 17/08/2026 18:15 25.4 64.0 1,016.3 β†’ Stable 11,292 confortablement-chaud (approx.)
13080 17/08/2026 18:00 25.7 63.0 1,016.3 β†’ Stable 16,020 confortablement-chaud (approx.)
13079 17/08/2026 17:45 26.1 62.0 1,016.2 β†’ Stable 21,300 confortablement-chaud (approx.)
13078 17/08/2026 17:15 27.2 60.0 1,016.2 β†’ Stable 31,944 confortablement-chaud (approx.)
13077 17/08/2026 16:45 27.9 57.0 1,016.1 β†’ Stable 42,876 confortablement-chaud (approx.)
13076 17/08/2026 16:30 28.3 56.0 1,016.1 β†’ Stable 48,336 confortablement-chaud (approx.)
13075 17/08/2026 16:15 28.7 55.0 1,016.1 β†’ Stable 53,616 confortablement-chaud (approx.)
13074 17/08/2026 15:45 29.3 54.0 1,016.0 β†’ Stable 63,420 conditions-neutrales-ou-non-definies
13073 17/08/2026 15:15 29.7 50.0 1,016.0 β†’ Stable 72,132 confortablement-chaud (approx.)
13072 17/08/2026 14:45 30.1 49.0 1,016.1 β†’ Stable 79,356 confortablement-chaud (approx.)
13071 17/08/2026 14:30 30.2 48.0 1,016.1 β†’ Stable 82,596 confortablement-chaud (approx.)
13070 17/08/2026 14:15 30.3 48.0 1,016.1 β†’ Stable 85,368 confortablement-chaud (approx.)
13069 17/08/2026 14:00 30.4 48.0 1,016.1 β†’ Stable 87,780 confortablement-chaud (approx.)
13068 17/08/2026 13:45 30.5 48.0 1,016.3 β†’ Stable 89,904 confortablement-chaud (approx.)
13067 17/08/2026 13:15 30.4 47.0 1,016.3 β†’ Stable 93,144 confortablement-chaud (approx.)
13066 17/08/2026 12:45 30.2 46.0 1,016.4 β†’ Stable 95,004 confortablement-chaud (approx.)
13065 17/08/2026 12:15 30.0 47.0 1,016.4 β†’ Stable 95,556 confortablement-chaud (approx.)
13064 17/08/2026 11:45 29.7 49.0 1,016.6 β†’ Stable 94,164 confortablement-chaud (approx.)
13063 17/08/2026 11:30 29.5 49.0 1,016.6 β†’ Stable 93,012 confortablement-chaud (approx.)
13062 17/08/2026 11:15 29.3 50.0 1,016.6 β†’ Stable 91,392 confortablement-chaud (approx.)
13061 17/08/2026 10:45 28.6 52.0 1,016.9 β†’ Stable 89,256 confortablement-chaud
13060 17/08/2026 10:30 28.1 52.0 1,016.9 β†’ Stable 86,760 confortablement-chaud
13059 17/08/2026 10:15 27.7 54.0 1,016.9 β†’ Stable 83,892 confortablement-chaud
13058 17/08/2026 09:45 26.8 58.0 1,016.9 β†’ Stable 75,180 confortablement-chaud
13057 17/08/2026 09:15 25.9 62.0 1,016.9 β†’ Stable 66,576 confortablement-chaud (approx.)
13056 17/08/2026 08:45 25.1 66.0 1,016.6 β†’ Stable 55,836 confortablement-chaud (approx.)
13055 17/08/2026 08:15 24.2 71.0 1,016.6 β†’ Stable 46,764 pluvieux-gris (approx.)
13054 17/08/2026 08:00 23.8 73.0 1,016.6 β†’ Stable 42,960 pluvieux-gris (approx.)